createdAt,value
2018-02-24T00:01:50.504Z,54.59
2018-02-24T00:04:18.955Z,54.67
2018-02-24T00:06:47.276Z,54.57
2018-02-24T00:09:15.595Z,55.08
2018-02-24T00:11:44.727Z,54.94
2018-02-24T00:14:13.057Z,55.36
2018-02-24T00:16:41.399Z,55.57
2018-02-24T00:19:10.508Z,55.37
2018-02-24T00:21:38.900Z,55.02
2018-02-24T00:24:08.056Z,55.23
2018-02-24T00:26:36.606Z,55.12
2018-02-24T00:29:05.674Z,55.16
2018-02-24T00:31:33.996Z,55.19
2018-02-24T00:34:02.468Z,55.82
2018-02-24T00:36:31.552Z,55.73
2018-02-24T00:39:00.653Z,55.24
2018-02-24T00:41:30.270Z,55.83
2018-02-24T00:43:58.592Z,55.64
2018-02-24T00:46:26.908Z,55.87
2018-02-24T00:48:56.351Z,55.33
2018-02-24T00:51:24.667Z,55.46
2018-02-24T00:53:53.011Z,55.74
2018-02-24T00:56:21.379Z,55.97
2018-02-24T00:58:49.745Z,55.85
2018-02-24T01:01:18.081Z,55.89
2018-02-24T01:03:46.441Z,55.76
2018-02-24T01:06:14.738Z,55.62
2018-02-24T01:08:43.086Z,56.04
2018-02-24T01:11:11.822Z,55.92
2018-02-24T01:13:40.142Z,56.29
2018-02-24T01:16:08.480Z,56.19
2018-02-24T01:18:37.589Z,56.48
2018-02-24T01:21:06.686Z,55.77
2018-02-24T01:23:35.809Z,55.78
2018-02-24T01:26:04.141Z,55.86
2018-02-24T01:28:32.509Z,55.93
2018-02-24T01:31:00.832Z,55.80
2018-02-24T01:33:30.605Z,55.24
2018-02-24T01:35:58.952Z,55.21
2018-02-24T01:38:27.282Z,54.65
2018-02-24T01:40:56.411Z,54.02
2018-02-24T01:43:24.985Z,53.91
2018-02-24T01:45:53.332Z,54.56
2018-02-24T01:48:22.437Z,53.99
2018-02-24T01:50:51.545Z,54.01
2018-02-24T01:53:19.876Z,54.03
2018-02-24T01:55:49.420Z,53.97
2018-02-24T01:58:17.761Z,54.17
2018-02-24T02:00:46.084Z,53.58
2018-02-24T02:03:15.183Z,53.92
2018-02-24T02:05:43.563Z,54.36
2018-02-24T02:08:11.872Z,53.88
2018-02-24T02:10:40.243Z,53.67
2018-02-24T02:13:08.601Z,53.19
2018-02-24T02:15:36.917Z,53.50
2018-02-24T02:18:05.733Z,54.72
2018-02-24T02:20:34.038Z,56.11
2018-02-24T02:23:03.098Z,56.00
2018-02-24T02:25:31.424Z,55.06
2018-02-24T02:27:59.761Z,54.83
2018-02-24T02:30:28.063Z,55.14
2018-02-24T02:32:57.225Z,55.70
2018-02-24T02:35:25.542Z,55.59
2018-02-24T02:37:53.883Z,55.67
2018-02-24T02:40:22.300Z,55.42
2018-02-24T02:42:50.637Z,54.58
2018-02-24T02:45:18.956Z,54.11
2018-02-24T02:47:48.050Z,54.82
2018-02-24T02:50:17.147Z,54.14
2018-02-24T02:52:45.506Z,54.34
2018-02-24T02:55:13.902Z,54.59
2018-02-24T02:57:43.000Z,54.47
2018-02-24T03:00:12.098Z,55.31
2018-02-24T03:02:41.518Z,54.83
2018-02-24T03:05:09.850Z,55.04
2018-02-24T03:07:38.194Z,55.50
2018-02-24T03:10:06.548Z,55.30
2018-02-24T03:12:34.897Z,55.49
2018-02-24T03:15:03.235Z,54.84
2018-02-24T03:17:31.577Z,55.20
2018-02-24T03:20:00.668Z,55.61
2018-02-24T03:22:29.011Z,55.30
2018-02-24T03:24:57.636Z,54.49
2018-02-24T03:27:25.967Z,54.42
2018-02-24T03:29:54.258Z,53.94
2018-02-24T03:32:22.603Z,54.31
2018-02-24T03:34:50.936Z,53.89
2018-02-24T03:37:19.265Z,53.99
2018-02-24T03:39:47.638Z,53.99
2018-02-24T03:42:15.986Z,54.88
2018-02-24T03:44:44.356Z,54.61
2018-02-24T03:47:14.579Z,54.54
2018-02-24T03:49:43.706Z,54.70
2018-02-24T03:52:12.003Z,54.05
2018-02-24T03:54:40.392Z,54.48
2018-02-24T03:57:08.725Z,54.71
2018-02-24T03:59:37.065Z,54.34
2018-02-24T04:02:05.413Z,53.78
2018-02-24T04:04:33.738Z,53.77
2018-02-24T04:07:02.071Z,53.85
2018-02-24T04:09:30.592Z,54.80
2018-02-24T04:11:59.179Z,54.23
2018-02-24T04:14:27.513Z,55.02
2018-02-24T04:16:55.896Z,54.34
2018-02-24T04:19:24.225Z,54.38
2018-02-24T04:21:53.315Z,54.38
2018-02-24T04:24:21.660Z,54.83
2018-02-24T04:26:49.955Z,54.45
2018-02-24T04:29:18.281Z,54.60
2018-02-24T04:31:47.799Z,54.69
2018-02-24T04:34:16.101Z,54.96
2018-02-24T04:36:44.401Z,54.74
2018-02-24T04:39:12.720Z,54.82
2018-02-24T04:41:41.054Z,54.72
2018-02-24T04:44:09.358Z,55.16
2018-02-24T04:46:38.485Z,54.79
2018-02-24T04:49:07.724Z,54.55
2018-02-24T04:51:36.102Z,54.59
2018-02-24T04:54:04.613Z,54.90
2018-02-24T04:56:33.703Z,55.05
2018-02-24T04:59:02.027Z,54.76
2018-02-24T05:01:30.362Z,54.65
2018-02-24T05:03:59.452Z,54.31
2018-02-24T05:06:27.780Z,54.54
2018-02-24T05:08:56.104Z,54.69
2018-02-24T05:11:24.401Z,53.93
2018-02-24T05:13:53.476Z,54.19
2018-02-24T05:16:22.384Z,54.10
2018-02-24T05:18:50.737Z,54.27
2018-02-24T05:21:19.069Z,54.36
2018-02-24T05:23:47.409Z,54.46
2018-02-24T05:26:15.731Z,53.89
2018-02-24T05:28:44.051Z,53.90
2018-02-24T05:31:12.429Z,53.55
2018-02-24T05:33:40.785Z,53.76
2018-02-24T05:36:09.114Z,53.46
2018-02-24T05:38:37.541Z,53.63
2018-02-24T05:41:05.864Z,53.98
2018-02-24T05:43:34.944Z,54.40
2018-02-24T05:46:03.679Z,54.21
2018-02-24T05:48:31.997Z,54.07
2018-02-24T05:51:00.344Z,53.91
2018-02-24T05:53:28.698Z,54.47
2018-02-24T05:55:57.039Z,54.70
2018-02-24T05:58:25.404Z,54.76
2018-02-24T06:00:53.988Z,54.92
2018-02-24T06:03:22.294Z,54.95
2018-02-24T06:05:50.607Z,55.40
2018-02-24T06:08:18.956Z,55.63
2018-02-24T06:10:48.066Z,56.15
2018-02-24T06:13:16.403Z,56.11
2018-02-24T06:15:44.777Z,56.66
2018-02-24T06:18:13.870Z,57.24
2018-02-24T06:20:42.214Z,56.88
2018-02-24T06:23:10.969Z,57.20
2018-02-24T06:25:39.306Z,57.18
2018-02-24T06:28:07.614Z,57.26
2018-02-24T06:30:35.982Z,56.94
2018-02-24T06:33:04.282Z,57.42
2018-02-24T06:35:32.629Z,57.39
2018-02-24T06:38:00.990Z,57.79
2018-02-24T06:40:29.305Z,58.07
2018-02-24T06:42:57.639Z,58.32
2018-02-24T06:45:26.099Z,58.69
2018-02-24T06:47:54.471Z,58.80
2018-02-24T06:50:23.796Z,58.15
2018-02-24T06:52:52.109Z,58.32
2018-02-24T06:55:20.433Z,58.25
2018-02-24T06:57:48.784Z,58.75
2018-02-24T07:00:17.168Z,58.63
2018-02-24T07:02:45.500Z,59.00
2018-02-24T07:05:13.800Z,58.87
2018-02-24T07:07:42.592Z,59.32
2018-02-24T07:10:10.894Z,59.07
2018-02-24T07:12:39.280Z,59.43
2018-02-24T07:15:08.409Z,59.51
2018-02-24T07:17:36.712Z,59.81
2018-02-24T07:20:05.017Z,59.60
2018-02-24T07:22:33.389Z,60.20
2018-02-24T07:25:01.707Z,60.12
2018-02-24T07:27:30.786Z,60.24
2018-02-24T07:30:00.392Z,60.26
2018-02-24T07:32:28.713Z,60.68
2018-02-24T07:34:57.044Z,61.15
2018-02-24T07:37:26.156Z,61.72
2018-02-24T07:39:54.503Z,60.89
2018-02-24T07:42:22.809Z,61.10
2018-02-24T07:44:51.164Z,61.20
2018-02-24T07:47:19.493Z,61.85
2018-02-24T07:49:47.835Z,60.66
2018-02-24T07:52:16.460Z,60.12
2018-02-24T07:54:44.768Z,60.86
2018-02-24T07:57:13.076Z,61.41
2018-02-24T07:59:41.424Z,62.28
2018-02-24T08:02:09.713Z,61.36
2018-02-24T08:04:38.053Z,62.21
2018-02-24T08:07:06.383Z,61.93
2018-02-24T08:09:34.727Z,62.39
2018-02-24T08:12:03.065Z,62.27
2018-02-24T08:14:32.442Z,60.95
2018-02-24T08:17:00.731Z,61.21
2018-02-24T08:19:29.826Z,61.36
2018-02-24T08:21:58.189Z,59.67
2018-02-24T08:24:26.517Z,59.48
2018-02-24T08:26:54.841Z,60.95
2018-02-24T08:29:23.201Z,61.34
2018-02-24T08:31:51.544Z,60.24
2018-02-24T08:34:19.915Z,59.52
2018-02-24T08:36:49.351Z,58.96
2018-02-24T08:39:17.711Z,58.96
2018-02-24T08:41:46.049Z,59.31
2018-02-24T08:44:15.190Z,59.57
2018-02-24T08:46:43.509Z,58.70
2018-02-24T08:49:11.957Z,57.73
2018-02-24T08:51:40.292Z,57.15
2018-02-24T08:54:09.455Z,56.35
2018-02-24T08:56:37.780Z,53.64
2018-02-24T08:59:07.577Z,53.20
2018-02-24T09:01:35.897Z,53.70
2018-02-24T09:04:04.197Z,53.04
2018-02-24T09:06:32.542Z,51.38
2018-02-24T09:09:00.860Z,50.38
2018-02-24T09:11:29.181Z,49.09
2018-02-24T09:13:57.543Z,46.81
2018-02-24T09:16:25.889Z,42.72
2018-02-24T09:18:54.264Z,42.35
2018-02-24T09:21:23.112Z,41.49
2018-02-24T09:23:51.468Z,39.82
2018-02-24T09:26:20.636Z,39.99
2018-02-24T09:28:49.001Z,39.30
2018-02-24T09:31:17.319Z,38.98
2018-02-24T09:33:45.665Z,38.47
2018-02-24T09:36:14.036Z,37.94
2018-02-24T09:38:42.387Z,39.65
2018-02-24T09:41:10.709Z,37.26
2018-02-24T09:43:39.428Z,35.20
2018-02-24T09:46:07.754Z,32.34
2018-02-24T09:48:36.053Z,32.40
2018-02-24T09:51:04.404Z,31.07
2018-02-24T09:53:32.742Z,30.99
2018-02-24T09:56:01.103Z,31.41
2018-02-24T09:58:29.500Z,30.81
2018-02-24T10:00:57.828Z,30.65
2018-02-24T10:03:26.131Z,29.02
2018-02-24T10:05:55.768Z,27.22
2018-02-24T10:08:24.881Z,25.45
2018-02-24T10:10:53.205Z,24.57
2018-02-24T10:13:22.426Z,24.72
2018-02-24T10:15:50.774Z,23.90
2018-02-24T10:18:19.128Z,24.58
2018-02-24T10:20:47.465Z,25.74
2018-02-24T10:23:15.836Z,25.70
2018-02-24T10:25:44.197Z,22.96
2018-02-24T10:28:13.157Z,19.36
2018-02-24T10:30:41.509Z,21.18
2018-02-24T10:33:10.618Z,20.81
2018-02-24T10:35:39.734Z,20.35
2018-02-24T10:38:08.056Z,21.56
2018-02-24T10:40:36.421Z,21.78
2018-02-24T10:43:04.875Z,21.55
2018-02-24T10:45:33.189Z,23.78
2018-02-24T10:48:01.509Z,25.75
2018-02-24T10:50:31.323Z,22.97
2018-02-24T10:52:59.913Z,20.70
2018-02-24T10:55:28.217Z,19.77
2018-02-24T11:00:31.235Z,21.25
2018-02-24T11:02:59.679Z,20.86
2018-02-24T11:05:28.040Z,22.14
2018-02-24T11:07:57.109Z,21.30
2018-02-24T11:10:25.569Z,19.35
2018-02-24T11:12:53.907Z,18.10
2018-02-24T11:15:22.978Z,19.53
2018-02-24T11:17:51.324Z,21.91
2018-02-24T11:20:19.644Z,24.62
2018-02-24T11:22:48.054Z,25.89
2018-02-24T11:25:16.391Z,27.09
2018-02-24T11:27:44.712Z,25.82
2018-02-24T11:30:13.040Z,25.73
2018-02-24T11:32:41.917Z,26.32
2018-02-24T11:35:10.358Z,25.46
2018-02-24T11:37:38.618Z,26.28
2018-02-24T11:40:06.970Z,24.74
2018-02-24T11:42:35.305Z,20.09
2018-02-24T11:45:03.642Z,18.38
2018-02-24T11:47:31.988Z,17.44
2018-02-24T11:50:00.349Z,17.05
2018-02-24T11:52:28.683Z,16.22
2018-02-24T11:54:57.764Z,16.95
2018-02-24T11:57:26.119Z,17.54
2018-02-24T11:59:54.457Z,18.32
2018-02-24T12:02:22.831Z,22.21
2018-02-24T12:04:52.156Z,22.23
2018-02-24T12:07:20.511Z,22.37
2018-02-24T12:09:48.956Z,21.35
2018-02-24T12:12:17.335Z,22.51
2018-02-24T12:14:45.665Z,22.80
2018-02-24T12:17:14.292Z,23.68
2018-02-24T12:19:42.621Z,22.17
2018-02-24T12:22:10.942Z,23.95
2018-02-24T12:24:39.330Z,26.91
2018-02-24T12:27:07.729Z,27.52
2018-02-24T12:29:36.184Z,29.19
2018-02-24T12:32:04.617Z,29.95
2018-02-24T12:34:32.999Z,30.60
2018-02-24T12:37:02.126Z,31.17
2018-02-24T12:39:30.671Z,26.55
2018-02-24T12:41:59.009Z,22.02
2018-02-24T12:44:27.369Z,19.97
2018-02-24T12:46:55.735Z,19.70
2018-02-24T12:49:24.078Z,21.32
2018-02-24T12:51:52.428Z,20.02
2018-02-24T12:54:20.773Z,18.36
2018-02-24T12:56:49.126Z,17.16
2018-02-24T12:59:17.465Z,16.14
2018-02-24T13:01:46.380Z,15.89
2018-02-24T13:04:15.504Z,17.49
2018-02-24T13:06:43.812Z,18.60
2018-02-24T13:09:12.483Z,18.32
2018-02-24T13:11:40.840Z,17.11
2018-02-24T13:14:09.201Z,19.64
2018-02-24T13:16:37.573Z,19.78
2018-02-24T13:19:06.685Z,20.69
2018-02-24T13:21:35.777Z,23.13
2018-02-24T13:24:05.211Z,26.19
2018-02-24T13:26:33.562Z,27.57
2018-02-24T13:29:02.687Z,28.61
2018-02-24T13:31:31.066Z,29.88
2018-02-24T13:33:59.457Z,30.61
2018-02-24T13:36:27.809Z,30.82
2018-02-24T13:38:56.218Z,30.67
2018-02-24T13:41:24.571Z,26.80
2018-02-24T13:43:52.894Z,23.70
2018-02-24T13:46:21.718Z,23.66
2018-02-24T13:48:50.097Z,23.00
2018-02-24T13:51:19.187Z,22.01
2018-02-24T13:53:48.350Z,20.60
2018-02-24T13:56:16.697Z,20.19
2018-02-24T13:58:45.117Z,19.72
2018-02-24T14:01:13.510Z,19.40
2018-02-24T14:03:41.868Z,18.45
2018-02-24T14:06:10.227Z,20.08
2018-02-24T14:08:39.275Z,22.44
2018-02-24T14:11:08.492Z,24.16
2018-02-24T14:13:36.854Z,27.04
2018-02-24T14:16:05.229Z,28.40
2018-02-24T14:18:34.422Z,30.35
2018-02-24T14:21:02.770Z,31.99
2018-02-24T14:23:32.024Z,33.10
2018-02-24T14:25:59.618Z,32.82
2018-02-24T14:28:27.949Z,31.17
2018-02-24T14:30:56.835Z,28.79
2018-02-24T14:33:25.216Z,28.50
2018-02-24T14:35:54.301Z,24.97
2018-02-24T14:38:22.688Z,23.74
2018-02-24T14:40:51.018Z,22.56
2018-02-24T14:43:19.362Z,21.46
2018-02-24T14:45:47.726Z,20.66
2018-02-24T14:48:16.124Z,21.60
2018-02-24T14:50:45.240Z,20.44
2018-02-24T14:53:14.012Z,20.25
2018-02-24T14:55:42.717Z,21.95
2018-02-24T14:58:11.075Z,23.10
2018-02-24T15:00:40.186Z,24.16
2018-02-24T15:03:08.521Z,26.13
2018-02-24T15:05:36.880Z,24.70
2018-02-24T15:08:05.276Z,23.65
2018-02-24T15:10:33.642Z,23.60
2018-02-24T15:13:02.008Z,24.02
2018-02-24T15:15:30.738Z,25.59
2018-02-24T15:17:59.865Z,26.32
2018-02-24T15:20:28.193Z,27.08
2018-02-24T15:22:56.546Z,28.03
2018-02-24T15:25:24.848Z,28.74
2018-02-24T15:27:53.165Z,29.84
2018-02-24T15:30:21.574Z,30.79
2018-02-24T15:32:49.929Z,30.97
2018-02-24T15:35:18.366Z,31.23
2018-02-24T15:37:46.805Z,30.88
2018-02-24T15:40:15.144Z,29.09
2018-02-24T15:42:43.544Z,27.74
2018-02-24T15:45:11.957Z,25.93
2018-02-24T15:47:40.437Z,25.55
2018-02-24T15:50:08.774Z,26.05
2018-02-24T15:52:37.175Z,27.88
2018-02-24T15:55:05.565Z,29.92
2018-02-24T15:57:33.866Z,30.79
2018-02-24T16:00:03.455Z,32.53
2018-02-24T16:02:32.658Z,32.96
2018-02-24T16:05:00.961Z,33.16
2018-02-24T16:07:29.306Z,33.74
2018-02-24T16:09:57.656Z,33.96
2018-02-24T16:12:26.760Z,34.73
2018-02-24T16:14:55.170Z,35.30
2018-02-24T16:17:23.522Z,35.68
2018-02-24T16:19:51.865Z,36.03
2018-02-24T16:22:20.522Z,37.60
2018-02-24T16:24:48.834Z,39.02
2018-02-24T16:27:17.191Z,39.19
2018-02-24T16:29:45.616Z,39.80
2018-02-24T16:32:13.944Z,39.98
2018-02-24T16:34:42.269Z,41.28
2018-02-24T16:37:10.677Z,41.77
2018-02-24T16:39:39.005Z,41.47
2018-02-24T16:42:07.404Z,41.00
2018-02-24T16:44:36.287Z,41.27
2018-02-24T16:47:04.678Z,41.35
2018-02-24T16:49:33.050Z,41.52
2018-02-24T16:52:01.469Z,42.25
2018-02-24T16:54:29.770Z,41.78
2018-02-24T16:56:58.090Z,42.70
2018-02-24T16:59:26.479Z,42.66
2018-02-24T17:01:54.822Z,42.82
2018-02-24T17:04:23.210Z,43.08
2018-02-24T17:06:53.450Z,43.54
2018-02-24T17:09:21.773Z,43.22
2018-02-24T17:11:50.164Z,43.41
2018-02-24T17:14:18.520Z,43.51
2018-02-24T17:16:46.860Z,43.84
2018-02-24T17:19:15.941Z,44.24
2018-02-24T17:21:44.285Z,45.27
2018-02-24T17:24:12.607Z,45.84
2018-02-24T17:26:41.705Z,46.20
2018-02-24T17:29:11.426Z,46.60
2018-02-24T17:31:40.521Z,46.63
2018-02-24T17:34:08.847Z,45.99
2018-02-24T17:36:37.195Z,46.58
2018-02-24T17:39:05.516Z,45.46
2018-02-24T17:41:33.870Z,46.29
2018-02-24T17:44:02.266Z,46.52
2018-02-24T17:46:30.597Z,46.84
2018-02-24T17:48:59.682Z,47.04
2018-02-24T17:51:28.217Z,47.02
2018-02-24T17:53:56.548Z,47.47
2018-02-24T17:56:25.655Z,48.20
2018-02-24T17:58:54.787Z,48.59
2018-02-24T18:01:23.151Z,49.07
2018-02-24T18:03:51.453Z,49.40
2018-02-24T18:06:19.834Z,49.30
2018-02-24T18:08:48.175Z,49.49
2018-02-24T18:11:16.530Z,49.03
2018-02-24T18:13:45.842Z,48.95
2018-02-24T18:16:14.183Z,49.22
2018-02-24T18:18:42.588Z,49.08
2018-02-24T18:21:11.726Z,49.72
2018-02-24T18:23:40.045Z,49.32
2018-02-24T18:26:08.382Z,49.81
2018-02-24T18:28:36.749Z,49.95
2018-02-24T18:31:05.077Z,49.60
2018-02-24T18:33:33.433Z,49.77
2018-02-24T18:36:02.488Z,50.24
2018-02-24T18:38:30.799Z,50.60
2018-02-24T18:40:59.095Z,50.49
2018-02-24T18:43:27.504Z,50.50
2018-02-24T18:45:55.835Z,51.10
2018-02-24T18:48:24.142Z,52.07
2018-02-24T18:50:52.504Z,52.16
2018-02-24T18:53:20.944Z,51.81
2018-02-24T18:55:50.070Z,51.49
2018-02-24T18:58:18.594Z,51.50
2018-02-24T19:00:47.677Z,52.31
2018-02-24T19:03:15.982Z,51.97
2018-02-24T19:05:44.334Z,51.67
2018-02-24T19:08:12.665Z,51.18
2018-02-24T19:10:40.992Z,51.54
2018-02-24T19:13:09.393Z,51.75
2018-02-24T19:15:38.550Z,51.17
2018-02-24T19:18:06.892Z,52.30
2018-02-24T19:20:36.160Z,52.83
2018-02-24T19:23:04.504Z,52.45
2018-02-24T19:25:32.857Z,52.47
2018-02-24T19:28:01.273Z,52.56
2018-02-24T19:30:29.643Z,51.83
2018-02-24T19:32:57.946Z,51.89
2018-02-24T19:35:26.336Z,51.57
2018-02-24T19:37:54.666Z,52.82
2018-02-24T19:40:22.984Z,51.86
2018-02-24T19:42:52.961Z,51.23
2018-02-24T19:45:21.274Z,50.66
2018-02-24T19:47:49.644Z,50.54
2018-02-24T19:50:17.988Z,50.55
2018-02-24T19:52:46.327Z,50.58
2018-02-24T19:55:14.664Z,49.81
2018-02-24T19:57:43.017Z,50.01
2018-02-24T20:00:11.374Z,48.92
2018-02-24T20:02:40.494Z,49.76
2018-02-24T20:05:09.212Z,48.75
2018-02-24T20:07:37.568Z,48.68
2018-02-24T20:10:05.885Z,48.52
2018-02-24T20:12:34.255Z,47.88
2018-02-24T20:15:02.568Z,48.18
2018-02-24T20:17:31.730Z,48.15
2018-02-24T20:20:00.559Z,47.81
2018-02-24T20:22:28.895Z,47.59
2018-02-24T20:24:57.204Z,47.47
2018-02-24T20:27:26.515Z,47.90
2018-02-24T20:29:55.609Z,47.37
2018-02-24T20:32:24.726Z,47.70
2018-02-24T20:34:53.089Z,47.30
2018-02-24T20:37:22.183Z,47.34
2018-02-24T20:39:50.532Z,47.64
2018-02-24T20:42:18.889Z,48.02
2018-02-24T20:44:47.201Z,47.89
2018-02-24T20:47:15.562Z,47.70
2018-02-24T20:49:43.973Z,47.43
2018-02-24T20:52:12.312Z,47.67
2018-02-24T20:54:40.664Z,48.18
2018-02-24T20:57:09.010Z,47.82
2018-02-24T20:59:37.418Z,48.04
2018-02-24T21:02:05.797Z,47.43
2018-02-24T21:04:34.160Z,47.56
2018-02-24T21:07:02.492Z,48.02
2018-02-24T21:09:30.793Z,47.52
2018-02-24T21:11:59.920Z,47.94
2018-02-24T21:14:28.246Z,47.88
2018-02-24T21:16:56.563Z,47.71
2018-02-24T21:19:24.952Z,48.15
2018-02-24T21:21:53.309Z,48.10
2018-02-24T21:24:22.397Z,47.87
2018-02-24T21:26:50.739Z,47.96
2018-02-24T21:29:19.082Z,48.22
2018-02-24T21:31:48.155Z,48.56
2018-02-24T21:34:18.129Z,48.74
2018-02-24T21:36:46.436Z,48.86
2018-02-24T21:39:14.790Z,48.15
2018-02-24T21:41:43.169Z,48.86
2018-02-24T21:44:11.506Z,48.77
2018-02-24T21:46:40.599Z,49.26
2018-02-24T21:49:09.717Z,49.30
2018-02-24T21:51:38.018Z,49.21
2018-02-24T21:54:06.355Z,49.24
2018-02-24T21:56:35.868Z,50.00
2018-02-24T21:59:04.185Z,49.30
2018-02-24T22:01:32.537Z,49.64
2018-02-24T22:04:00.916Z,49.47
2018-02-24T22:06:29.268Z,49.88
2018-02-24T22:08:58.372Z,49.62
2018-02-24T22:11:27.490Z,49.94
2018-02-24T22:13:55.812Z,49.64
2018-02-24T22:16:24.173Z,49.67
2018-02-24T22:18:53.440Z,49.70
2018-02-24T22:21:21.785Z,49.64
2018-02-24T22:23:50.139Z,49.94
2018-02-24T22:26:18.472Z,50.19
2018-02-24T22:28:46.783Z,50.00
2018-02-24T22:31:15.137Z,49.82
2018-02-24T22:33:43.529Z,50.08
2018-02-24T22:36:11.887Z,49.86
2018-02-24T22:38:40.234Z,50.52
2018-02-24T22:41:08.674Z,50.18
2018-02-24T22:43:36.982Z,50.22
2018-02-24T22:46:05.296Z,50.37
2018-02-24T22:48:39.098Z,49.99
2018-02-24T22:51:07.409Z,50.66
2018-02-24T22:53:35.711Z,50.94
2018-02-24T22:56:04.893Z,50.83
2018-02-24T22:58:33.225Z,50.71
2018-02-24T23:01:02.328Z,50.69
2018-02-24T23:03:31.178Z,50.38
2018-02-24T23:05:59.564Z,50.82
2018-02-24T23:08:27.893Z,50.86
2018-02-24T23:10:56.260Z,51.04
2018-02-24T23:13:24.615Z,50.84
2018-02-24T23:15:53.716Z,51.48
2018-02-24T23:18:22.860Z,51.51
2018-02-24T23:20:51.184Z,51.47
2018-02-24T23:23:19.528Z,50.89
2018-02-24T23:25:48.204Z,51.39
2018-02-24T23:28:16.546Z,51.50
2018-02-24T23:30:45.672Z,51.19
2018-02-24T23:33:14.009Z,50.86
2018-02-24T23:35:42.366Z,51.28
2018-02-24T23:38:10.712Z,51.42
2018-02-24T23:40:39.068Z,52.25
2018-02-24T23:43:07.412Z,51.93
2018-02-24T23:45:35.741Z,51.53
2018-02-24T23:48:04.299Z,51.02
2018-02-24T23:50:32.628Z,51.81
2018-02-24T23:53:00.941Z,51.16
2018-02-24T23:55:29.289Z,51.46
2018-02-24T23:57:57.641Z,52.03
